sensor_id;sensor_type;location;lat;lon;timestamp;P1;durP1;ratioP1;P2;durP2;ratioP2
13002;SDS011;66869;57.706;11.922;2023-03-20T00:00:53;1.05;;;1.00;;
13002;SDS011;66869;57.706;11.922;2023-03-20T00:03:19;1.13;;;1.02;;
13002;SDS011;66869;57.706;11.922;2023-03-20T00:05:44;1.30;;;1.20;;
13002;SDS011;66869;57.706;11.922;2023-03-20T00:08:10;1.90;;;1.80;;
13002;SDS011;66869;57.706;11.922;2023-03-20T00:10:39;1.30;;;1.20;;
13002;SDS011;66869;57.706;11.922;2023-03-20T00:13:06;2.28;;;1.17;;
13002;SDS011;66869;57.706;11.922;2023-03-20T00:17:56;1.43;;;1.33;;
13002;SDS011;66869;57.706;11.922;2023-03-20T00:20:22;0.95;;;0.95;;
13002;SDS011;66869;57.706;11.922;2023-03-20T00:22:48;0.88;;;0.88;;
13002;SDS011;66869;57.706;11.922;2023-03-20T00:25:14;1.45;;;1.35;;
13002;SDS011;66869;57.706;11.922;2023-03-20T00:27:40;1.08;;;1.00;;
13002;SDS011;66869;57.706;11.922;2023-03-20T00:30:15;1.23;;;1.13;;
13002;SDS011;66869;57.706;11.922;2023-03-20T00:32:42;1.08;;;0.98;;
13002;SDS011;66869;57.706;11.922;2023-03-20T00:35:17;1.00;;;1.00;;
13002;SDS011;66869;57.706;11.922;2023-03-20T00:37:43;1.02;;;1.02;;
13002;SDS011;66869;57.706;11.922;2023-03-20T00:40:08;0.82;;;0.82;;
13002;SDS011;66869;57.706;11.922;2023-03-20T00:42:34;1.30;;;1.20;;
13002;SDS011;66869;57.706;11.922;2023-03-20T00:45:00;0.70;;;0.70;;
13002;SDS011;66869;57.706;11.922;2023-03-20T00:47:26;0.80;;;0.80;;
13002;SDS011;66869;57.706;11.922;2023-03-20T00:49:52;1.08;;;1.08;;
13002;SDS011;66869;57.706;11.922;2023-03-20T00:52:19;1.70;;;1.60;;
13002;SDS011;66869;57.706;11.922;2023-03-20T00:54:44;1.25;;;1.17;;
13002;SDS011;66869;57.706;11.922;2023-03-20T00:59:36;1.20;;;1.10;;
13002;SDS011;66869;57.706;11.922;2023-03-20T01:02:02;1.88;;;1.77;;
13002;SDS011;66869;57.706;11.922;2023-03-20T01:04:34;0.93;;;0.93;;
13002;SDS011;66869;57.706;11.922;2023-03-20T01:07:00;1.00;;;1.00;;
13002;SDS011;66869;57.706;11.922;2023-03-20T01:09:26;1.05;;;1.05;;
13002;SDS011;66869;57.706;11.922;2023-03-20T01:11:51;1.60;;;1.50;;
13002;SDS011;66869;57.706;11.922;2023-03-20T01:14:16;1.70;;;1.60;;
13002;SDS011;66869;57.706;11.922;2023-03-20T01:16:42;1.55;;;1.45;;
13002;SDS011;66869;57.706;11.922;2023-03-20T01:19:16;1.00;;;1.00;;
13002;SDS011;66869;57.706;11.922;2023-03-20T01:21:42;1.10;;;1.00;;
13002;SDS011;66869;57.706;11.922;2023-03-20T01:24:07;1.67;;;1.58;;
13002;SDS011;66869;57.706;11.922;2023-03-20T01:26:33;1.80;;;1.60;;
13002;SDS011;66869;57.706;11.922;2023-03-20T01:29:00;1.33;;;1.23;;
13002;SDS011;66869;57.706;11.922;2023-03-20T01:31:25;1.15;;;1.08;;
13002;SDS011;66869;57.706;11.922;2023-03-20T01:33:50;1.63;;;1.15;;
13002;SDS011;66869;57.706;11.922;2023-03-20T01:36:17;1.23;;;1.13;;
13002;SDS011;66869;57.706;11.922;2023-03-20T01:38:44;1.65;;;1.10;;
13002;SDS011;66869;57.706;11.922;2023-03-20T01:43:35;2.27;;;1.30;;
13002;SDS011;66869;57.706;11.922;2023-03-20T01:46:12;1.13;;;1.02;;
13002;SDS011;66869;57.706;11.922;2023-03-20T01:51:17;1.33;;;1.20;;
13002;SDS011;66869;57.706;11.922;2023-03-20T01:53:43;1.98;;;1.20;;
13002;SDS011;66869;57.706;11.922;2023-03-20T01:56:09;1.40;;;1.30;;
13002;SDS011;66869;57.706;11.922;2023-03-20T01:58:37;1.40;;;1.00;;
13002;SDS011;66869;57.706;11.922;2023-03-20T02:01:05;1.58;;;1.48;;
13002;SDS011;66869;57.706;11.922;2023-03-20T02:03:31;1.52;;;1.30;;
13002;SDS011;66869;57.706;11.922;2023-03-20T02:05:57;1.05;;;0.95;;
13002;SDS011;66869;57.706;11.922;2023-03-20T02:08:41;1.50;;;1.40;;
13002;SDS011;66869;57.706;11.922;2023-03-20T02:11:09;1.55;;;1.20;;
13002;SDS011;66869;57.706;11.922;2023-03-20T02:13:35;1.50;;;1.40;;
13002;SDS011;66869;57.706;11.922;2023-03-20T02:16:03;1.83;;;1.30;;
13002;SDS011;66869;57.706;11.922;2023-03-20T02:18:29;1.38;;;1.27;;
13002;SDS011;66869;57.706;11.922;2023-03-20T02:31:04;1.83;;;1.55;;
13002;SDS011;66869;57.706;11.922;2023-03-20T02:33:52;1.27;;;1.17;;
13002;SDS011;66869;57.706;11.922;2023-03-20T02:38:57;1.50;;;1.40;;
13002;SDS011;66869;57.706;11.922;2023-03-20T03:01:50;1.17;;;1.05;;
13002;SDS011;66869;57.706;11.922;2023-03-20T03:04:17;0.88;;;0.88;;
13002;SDS011;66869;57.706;11.922;2023-03-20T03:06:45;0.90;;;0.90;;
13002;SDS011;66869;57.706;11.922;2023-03-20T03:11:37;1.10;;;0.88;;
13002;SDS011;66869;57.706;11.922;2023-03-20T03:14:04;1.25;;;1.15;;
13002;SDS011;66869;57.706;11.922;2023-03-20T03:16:32;0.82;;;0.82;;
13002;SDS011;66869;57.706;11.922;2023-03-20T03:19:06;0.93;;;0.90;;
13002;SDS011;66869;57.706;11.922;2023-03-20T03:21:32;1.00;;;1.00;;
13002;SDS011;66869;57.706;11.922;2023-03-20T03:23:57;1.27;;;1.00;;
13002;SDS011;66869;57.706;11.922;2023-03-20T03:26:24;1.30;;;1.20;;
13002;SDS011;66869;57.706;11.922;2023-03-20T03:28:53;1.20;;;1.10;;
13002;SDS011;66869;57.706;11.922;2023-03-20T03:31:19;0.85;;;0.70;;
13002;SDS011;66869;57.706;11.922;2023-03-20T03:33:47;1.40;;;1.08;;
13002;SDS011;66869;57.706;11.922;2023-03-20T03:38:51;1.15;;;1.05;;
13002;SDS011;66869;57.706;11.922;2023-03-20T03:41:33;0.75;;;0.73;;
13002;SDS011;66869;57.706;11.922;2023-03-20T03:44:10;0.82;;;0.80;;
13002;SDS011;66869;57.706;11.922;2023-03-20T03:46:38;1.00;;;1.00;;
13002;SDS011;66869;57.706;11.922;2023-03-20T03:49:05;1.08;;;0.80;;
13002;SDS011;66869;57.706;11.922;2023-03-20T03:51:33;0.60;;;0.60;;
13002;SDS011;66869;57.706;11.922;2023-03-20T03:54:02;0.70;;;0.70;;
13002;SDS011;66869;57.706;11.922;2023-03-20T03:56:29;0.88;;;0.88;;
13002;SDS011;66869;57.706;11.922;2023-03-20T03:58:56;0.80;;;0.80;;
13002;SDS011;66869;57.706;11.922;2023-03-20T04:01:23;0.90;;;0.90;;
13002;SDS011;66869;57.706;11.922;2023-03-20T04:03:52;0.90;;;0.90;;
13002;SDS011;66869;57.706;11.922;2023-03-20T04:06:18;1.00;;;0.90;;
13002;SDS011;66869;57.706;11.922;2023-03-20T04:08:43;0.98;;;0.93;;
13002;SDS011;66869;57.706;11.922;2023-03-20T04:11:15;0.90;;;0.85;;
13002;SDS011;66869;57.706;11.922;2023-03-20T04:13:41;0.63;;;0.63;;
13002;SDS011;66869;57.706;11.922;2023-03-20T04:16:10;0.98;;;0.88;;
13002;SDS011;66869;57.706;11.922;2023-03-20T04:18:37;0.70;;;0.70;;
13002;SDS011;66869;57.706;11.922;2023-03-20T04:21:02;0.80;;;0.80;;
13002;SDS011;66869;57.706;11.922;2023-03-20T04:23:27;0.63;;;0.63;;
13002;SDS011;66869;57.706;11.922;2023-03-20T04:25:53;0.90;;;0.90;;
13002;SDS011;66869;57.706;11.922;2023-03-20T04:28:18;1.98;;;0.63;;
13002;SDS011;66869;57.706;11.922;2023-03-20T04:30:43;1.50;;;0.55;;
13002;SDS011;66869;57.706;11.922;2023-03-20T04:33:12;2.85;;;0.95;;
13002;SDS011;66869;57.706;11.922;2023-03-20T04:35:37;1.02;;;0.73;;
13002;SDS011;66869;57.706;11.922;2023-03-20T04:38:02;5.75;;;1.02;;
13002;SDS011;66869;57.706;11.922;2023-03-20T04:40:27;0.80;;;0.75;;
13002;SDS011;66869;57.706;11.922;2023-03-20T04:42:53;0.80;;;0.80;;
13002;SDS011;66869;57.706;11.922;2023-03-20T04:45:19;0.68;;;0.68;;
13002;SDS011;66869;57.706;11.922;2023-03-20T04:47:44;0.75;;;0.75;;
13002;SDS011;66869;57.706;11.922;2023-03-20T04:50:10;0.60;;;0.60;;
13002;SDS011;66869;57.706;11.922;2023-03-20T04:52:36;1.02;;;0.93;;
13002;SDS011;66869;57.706;11.922;2023-03-20T04:55:01;0.68;;;0.68;;
13002;SDS011;66869;57.706;11.922;2023-03-20T04:57:26;0.93;;;0.80;;
13002;SDS011;66869;57.706;11.922;2023-03-20T04:59:52;1.00;;;1.00;;
13002;SDS011;66869;57.706;11.922;2023-03-20T05:02:17;0.85;;;0.82;;
13002;SDS011;66869;57.706;11.922;2023-03-20T05:04:43;0.77;;;0.75;;
13002;SDS011;66869;57.706;11.922;2023-03-20T05:07:08;0.93;;;0.80;;
13002;SDS011;66869;57.706;11.922;2023-03-20T05:09:34;0.73;;;0.60;;
13002;SDS011;66869;57.706;11.922;2023-03-20T05:11:59;1.00;;;0.60;;
13002;SDS011;66869;57.706;11.922;2023-03-20T05:14:24;0.70;;;0.65;;
13002;SDS011;66869;57.706;11.922;2023-03-20T05:16:50;0.80;;;0.70;;
13002;SDS011;66869;57.706;11.922;2023-03-20T05:19:15;3.47;;;0.75;;
13002;SDS011;66869;57.706;11.922;2023-03-20T05:21:41;0.60;;;0.60;;
13002;SDS011;66869;57.706;11.922;2023-03-20T05:24:06;2.78;;;0.82;;
13002;SDS011;66869;57.706;11.922;2023-03-20T05:26:31;0.50;;;0.50;;
13002;SDS011;66869;57.706;11.922;2023-03-20T05:28:57;0.60;;;0.60;;
13002;SDS011;66869;57.706;11.922;2023-03-20T05:31:22;0.60;;;0.60;;
13002;SDS011;66869;57.706;11.922;2023-03-20T05:33:47;0.80;;;0.75;;
13002;SDS011;66869;57.706;11.922;2023-03-20T05:36:12;0.50;;;0.50;;
13002;SDS011;66869;57.706;11.922;2023-03-20T05:38:38;0.57;;;0.57;;
13002;SDS011;66869;57.706;11.922;2023-03-20T05:41:03;0.50;;;0.50;;
13002;SDS011;66869;57.706;11.922;2023-03-20T05:43:28;0.60;;;0.60;;
13002;SDS011;66869;57.706;11.922;2023-03-20T05:45:54;0.63;;;0.50;;
13002;SDS011;66869;57.706;11.922;2023-03-20T05:48:20;0.50;;;0.50;;
13002;SDS011;66869;57.706;11.922;2023-03-20T05:50:45;0.50;;;0.50;;
13002;SDS011;66869;57.706;11.922;2023-03-20T05:53:11;0.77;;;0.60;;
13002;SDS011;66869;57.706;11.922;2023-03-20T05:55:36;0.40;;;0.40;;
13002;SDS011;66869;57.706;11.922;2023-03-20T05:58:01;0.30;;;0.22;;
13002;SDS011;66869;57.706;11.922;2023-03-20T06:00:26;1.17;;;0.70;;
13002;SDS011;66869;57.706;11.922;2023-03-20T06:02:52;0.88;;;0.52;;
13002;SDS011;66869;57.706;11.922;2023-03-20T06:05:17;0.73;;;0.73;;
13002;SDS011;66869;57.706;11.922;2023-03-20T06:07:42;0.60;;;0.60;;
13002;SDS011;66869;57.706;11.922;2023-03-20T06:10:08;13.95;;;3.63;;
13002;SDS011;66869;57.706;11.922;2023-03-20T06:12:33;20.42;;;5.90;;
13002;SDS011;66869;57.706;11.922;2023-03-20T06:14:58;22.20;;;5.55;;
13002;SDS011;66869;57.706;11.922;2023-03-20T06:17:24;25.20;;;6.32;;
13002;SDS011;66869;57.706;11.922;2023-03-20T06:19:50;17.25;;;5.88;;
13002;SDS011;66869;57.706;11.922;2023-03-20T06:22:15;18.92;;;4.43;;
13002;SDS011;66869;57.706;11.922;2023-03-20T06:24:40;17.95;;;3.92;;
13002;SDS011;66869;57.706;11.922;2023-03-20T06:27:07;13.13;;;3.97;;
13002;SDS011;66869;57.706;11.922;2023-03-20T06:29:32;11.10;;;3.10;;
13002;SDS011;66869;57.706;11.922;2023-03-20T06:31:57;13.70;;;3.08;;
13002;SDS011;66869;57.706;11.922;2023-03-20T06:34:23;10.15;;;3.05;;
13002;SDS011;66869;57.706;11.922;2023-03-20T06:36:48;7.82;;;2.38;;
13002;SDS011;66869;57.706;11.922;2023-03-20T06:39:13;8.50;;;2.50;;
13002;SDS011;66869;57.706;11.922;2023-03-20T06:41:39;10.07;;;2.33;;
13002;SDS011;66869;57.706;11.922;2023-03-20T06:44:05;10.65;;;2.63;;
13002;SDS011;66869;57.706;11.922;2023-03-20T06:46:30;5.63;;;2.42;;
13002;SDS011;66869;57.706;11.922;2023-03-20T06:48:55;7.78;;;2.20;;
13002;SDS011;66869;57.706;11.922;2023-03-20T06:51:21;5.43;;;2.00;;
13002;SDS011;66869;57.706;11.922;2023-03-20T06:53:46;4.13;;;1.75;;
13002;SDS011;66869;57.706;11.922;2023-03-20T06:56:11;7.20;;;1.70;;
13002;SDS011;66869;57.706;11.922;2023-03-20T06:58:37;5.15;;;1.45;;
13002;SDS011;66869;57.706;11.922;2023-03-20T07:01:07;3.58;;;1.35;;
13002;SDS011;66869;57.706;11.922;2023-03-20T07:03:32;4.68;;;1.70;;
13002;SDS011;66869;57.706;11.922;2023-03-20T07:05:57;4.25;;;1.33;;
13002;SDS011;66869;57.706;11.922;2023-03-20T07:08:24;6.18;;;1.42;;
13002;SDS011;66869;57.706;11.922;2023-03-20T07:10:49;3.10;;;1.50;;
13002;SDS011;66869;57.706;11.922;2023-03-20T07:13:15;4.22;;;1.20;;
13002;SDS011;66869;57.706;11.922;2023-03-20T07:15:41;5.90;;;1.30;;
13002;SDS011;66869;57.706;11.922;2023-03-20T07:18:06;8.20;;;1.27;;
13002;SDS011;66869;57.706;11.922;2023-03-20T07:20:32;6.20;;;1.17;;
13002;SDS011;66869;57.706;11.922;2023-03-20T07:22:57;5.75;;;1.23;;
13002;SDS011;66869;57.706;11.922;2023-03-20T07:25:23;1.70;;;0.80;;
13002;SDS011;66869;57.706;11.922;2023-03-20T07:27:48;2.47;;;0.75;;
13002;SDS011;66869;57.706;11.922;2023-03-20T07:30:15;2.28;;;1.00;;
13002;SDS011;66869;57.706;11.922;2023-03-20T07:32:40;2.17;;;0.85;;
13002;SDS011;66869;57.706;11.922;2023-03-20T07:35:06;1.60;;;0.80;;
13002;SDS011;66869;57.706;11.922;2023-03-20T07:37:31;1.45;;;0.55;;
13002;SDS011;66869;57.706;11.922;2023-03-20T07:39:56;1.30;;;0.68;;
13002;SDS011;66869;57.706;11.922;2023-03-20T07:42:22;2.28;;;0.70;;
13002;SDS011;66869;57.706;11.922;2023-03-20T07:44:47;1.27;;;0.70;;
13002;SDS011;66869;57.706;11.922;2023-03-20T07:47:12;1.65;;;0.73;;
13002;SDS011;66869;57.706;11.922;2023-03-20T07:49:37;1.00;;;0.73;;
13002;SDS011;66869;57.706;11.922;2023-03-20T07:52:03;0.75;;;0.52;;
13002;SDS011;66869;57.706;11.922;2023-03-20T07:54:28;1.85;;;0.63;;
13002;SDS011;66869;57.706;11.922;2023-03-20T07:56:53;1.00;;;0.60;;
13002;SDS011;66869;57.706;11.922;2023-03-20T07:59:19;0.65;;;0.43;;
13002;SDS011;66869;57.706;11.922;2023-03-20T08:01:47;1.67;;;0.70;;
13002;SDS011;66869;57.706;11.922;2023-03-20T08:04:12;0.88;;;0.40;;
13002;SDS011;66869;57.706;11.922;2023-03-20T08:06:38;0.50;;;0.40;;
13002;SDS011;66869;57.706;11.922;2023-03-20T08:09:04;1.17;;;0.50;;
13002;SDS011;66869;57.706;11.922;2023-03-20T08:11:30;1.08;;;0.52;;
13002;SDS011;66869;57.706;11.922;2023-03-20T08:13:55;1.30;;;0.47;;
13002;SDS011;66869;57.706;11.922;2023-03-20T08:16:21;0.50;;;0.50;;
13002;SDS011;66869;57.706;11.922;2023-03-20T08:18:46;2.28;;;0.60;;
13002;SDS011;66869;57.706;11.922;2023-03-20T08:21:11;0.98;;;0.30;;
13002;SDS011;66869;57.706;11.922;2023-03-20T08:23:36;0.68;;;0.47;;
13002;SDS011;66869;57.706;11.922;2023-03-20T08:26:02;0.80;;;0.30;;
13002;SDS011;66869;57.706;11.922;2023-03-20T08:28:27;2.70;;;0.68;;
13002;SDS011;66869;57.706;11.922;2023-03-20T08:30:52;0.55;;;0.40;;
13002;SDS011;66869;57.706;11.922;2023-03-20T08:33:18;2.70;;;0.50;;
13002;SDS011;66869;57.706;11.922;2023-03-20T08:35:43;1.35;;;0.47;;
13002;SDS011;66869;57.706;11.922;2023-03-20T08:38:18;0.77;;;0.20;;
13002;SDS011;66869;57.706;11.922;2023-03-20T08:40:44;0.82;;;0.30;;
13002;SDS011;66869;57.706;11.922;2023-03-20T08:43:09;0.17;;;0.17;;
13002;SDS011;66869;57.706;11.922;2023-03-20T08:45:34;1.27;;;0.50;;
13002;SDS011;66869;57.706;11.922;2023-03-20T08:48:00;1.30;;;0.30;;
13002;SDS011;66869;57.706;11.922;2023-03-20T08:50:25;0.57;;;0.30;;
13002;SDS011;66869;57.706;11.922;2023-03-20T08:52:51;0.40;;;0.25;;
13002;SDS011;66869;57.706;11.922;2023-03-20T08:55:16;0.85;;;0.30;;
13002;SDS011;66869;57.706;11.922;2023-03-20T08:57:41;0.60;;;0.20;;
13002;SDS011;66869;57.706;11.922;2023-03-20T09:00:07;1.08;;;0.30;;
13002;SDS011;66869;57.706;11.922;2023-03-20T09:02:33;0.10;;;0.10;;
13002;SDS011;66869;57.706;11.922;2023-03-20T09:04:58;1.15;;;0.60;;
13002;SDS011;66869;57.706;11.922;2023-03-20T09:07:24;0.47;;;0.20;;
13002;SDS011;66869;57.706;11.922;2023-03-20T09:09:49;0.20;;;0.20;;
13002;SDS011;66869;57.706;11.922;2023-03-20T09:12:14;0.22;;;0.22;;
13002;SDS011;66869;57.706;11.922;2023-03-20T09:14:40;0.47;;;0.20;;
13002;SDS011;66869;57.706;11.922;2023-03-20T09:17:05;0.75;;;0.20;;
13002;SDS011;66869;57.706;11.922;2023-03-20T09:19:31;0.55;;;0.20;;
13002;SDS011;66869;57.706;11.922;2023-03-20T09:21:56;0.63;;;0.10;;
13002;SDS011;66869;57.706;11.922;2023-03-20T09:24:21;1.13;;;0.52;;
13002;SDS011;66869;57.706;11.922;2023-03-20T09:26:47;0.43;;;0.28;;
13002;SDS011;66869;57.706;11.922;2023-03-20T09:29:12;0.45;;;0.25;;
13002;SDS011;66869;57.706;11.922;2023-03-20T09:31:37;0.75;;;0.35;;
13002;SDS011;66869;57.706;11.922;2023-03-20T09:34:02;0.77;;;0.20;;
13002;SDS011;66869;57.706;11.922;2023-03-20T09:36:28;0.20;;;0.20;;
13002;SDS011;66869;57.706;11.922;2023-03-20T09:38:53;0.85;;;0.35;;
13002;SDS011;66869;57.706;11.922;2023-03-20T09:41:20;0.35;;;0.15;;
13002;SDS011;66869;57.706;11.922;2023-03-20T09:43:49;1.30;;;0.22;;
13002;SDS011;66869;57.706;11.922;2023-03-20T09:46:23;1.33;;;0.28;;
13002;SDS011;66869;57.706;11.922;2023-03-20T09:51:56;1.17;;;0.22;;
13002;SDS011;66869;57.706;11.922;2023-03-20T09:56:47;0.40;;;0.20;;
13002;SDS011;66869;57.706;11.922;2023-03-20T09:59:13;1.77;;;0.20;;
13002;SDS011;66869;57.706;11.922;2023-03-20T10:04:11;1.20;;;0.30;;
13002;SDS011;66869;57.706;11.922;2023-03-20T10:06:36;0.20;;;0.20;;
13002;SDS011;66869;57.706;11.922;2023-03-20T10:09:03;0.20;;;0.20;;
13002;SDS011;66869;57.706;11.922;2023-03-20T10:11:41;0.43;;;0.20;;
13002;SDS011;66869;57.706;11.922;2023-03-20T10:21:47;1.20;;;0.20;;
13002;SDS011;66869;57.706;11.922;2023-03-20T10:24:31;0.43;;;0.20;;
13002;SDS011;66869;57.706;11.922;2023-03-20T10:27:00;0.57;;;0.30;;
13002;SDS011;66869;57.706;11.922;2023-03-20T10:32:16;0.38;;;0.28;;
13002;SDS011;66869;57.706;11.922;2023-03-20T10:34:52;1.33;;;0.20;;
13002;SDS011;66869;57.706;11.922;2023-03-20T10:42:20;0.57;;;0.20;;
13002;SDS011;66869;57.706;11.922;2023-03-20T10:44:59;0.52;;;0.30;;
13002;SDS011;66869;57.706;11.922;2023-03-20T10:47:26;0.25;;;0.17;;
13002;SDS011;66869;57.706;11.922;2023-03-20T10:50:15;0.90;;;0.20;;
13002;SDS011;66869;57.706;11.922;2023-03-20T10:52:38;0.90;;;0.30;;
13002;SDS011;66869;57.706;11.922;2023-03-20T10:55:06;0.55;;;0.20;;
13002;SDS011;66869;57.706;11.922;2023-03-20T10:57:33;0.60;;;0.22;;
13002;SDS011;66869;57.706;11.922;2023-03-20T11:00:00;0.28;;;0.20;;
13002;SDS011;66869;57.706;11.922;2023-03-20T11:02:29;0.80;;;0.40;;
13002;SDS011;66869;57.706;11.922;2023-03-20T11:04:55;1.25;;;0.20;;
13002;SDS011;66869;57.706;11.922;2023-03-20T11:09:48;0.20;;;0.10;;
13002;SDS011;66869;57.706;11.922;2023-03-20T11:12:35;1.08;;;0.30;;
13002;SDS011;66869;57.706;11.922;2023-03-20T11:15:13;0.65;;;0.25;;
13002;SDS011;66869;57.706;11.922;2023-03-20T11:17:38;0.47;;;0.30;;
13002;SDS011;66869;57.706;11.922;2023-03-20T11:20:04;0.47;;;0.20;;
13002;SDS011;66869;57.706;11.922;2023-03-20T11:22:29;0.25;;;0.20;;
13002;SDS011;66869;57.706;11.922;2023-03-20T11:24:56;0.73;;;0.38;;
13002;SDS011;66869;57.706;11.922;2023-03-20T11:27:32;0.75;;;0.28;;
13002;SDS011;66869;57.706;11.922;2023-03-20T11:30:02;0.70;;;0.30;;
13002;SDS011;66869;57.706;11.922;2023-03-20T11:32:40;1.58;;;0.40;;
13002;SDS011;66869;57.706;11.922;2023-03-20T11:35:13;0.50;;;0.30;;
13002;SDS011;66869;57.706;11.922;2023-03-20T11:37:43;0.50;;;0.30;;
13002;SDS011;66869;57.706;11.922;2023-03-20T11:42:56;0.63;;;0.38;;
13002;SDS011;66869;57.706;11.922;2023-03-20T11:45:36;0.70;;;0.15;;
13002;SDS011;66869;57.706;11.922;2023-03-20T11:48:02;1.10;;;0.40;;
13002;SDS011;66869;57.706;11.922;2023-03-20T11:52:56;0.32;;;0.32;;
13002;SDS011;66869;57.706;11.922;2023-03-20T11:55:23;1.00;;;0.28;;
13002;SDS011;66869;57.706;11.922;2023-03-20T11:57:49;0.47;;;0.20;;
13002;SDS011;66869;57.706;11.922;2023-03-20T12:00:21;0.38;;;0.22;;
13002;SDS011;66869;57.706;11.922;2023-03-20T12:02:47;0.55;;;0.30;;
13002;SDS011;66869;57.706;11.922;2023-03-20T12:07:55;0.55;;;0.38;;
13002;SDS011;66869;57.706;11.922;2023-03-20T12:10:22;0.80;;;0.32;;
13002;SDS011;66869;57.706;11.922;2023-03-20T12:12:56;0.50;;;0.40;;
13002;SDS011;66869;57.706;11.922;2023-03-20T12:15:39;0.43;;;0.25;;
13002;SDS011;66869;57.706;11.922;2023-03-20T12:18:10;0.98;;;0.38;;
13002;SDS011;66869;57.706;11.922;2023-03-20T12:28:10;1.45;;;0.40;;
13002;SDS011;66869;57.706;11.922;2023-03-20T12:30:47;1.23;;;0.40;;
13002;SDS011;66869;57.706;11.922;2023-03-20T12:33:20;0.57;;;0.35;;
13002;SDS011;66869;57.706;11.922;2023-03-20T12:35:46;0.93;;;0.40;;
13002;SDS011;66869;57.706;11.922;2023-03-20T12:38:19;0.90;;;0.45;;
13002;SDS011;66869;57.706;11.922;2023-03-20T12:40:47;0.50;;;0.30;;
13002;SDS011;66869;57.706;11.922;2023-03-20T12:43:15;1.30;;;0.43;;
13002;SDS011;66869;57.706;11.922;2023-03-20T12:58:45;0.47;;;0.25;;
13002;SDS011;66869;57.706;11.922;2023-03-20T13:01:13;0.43;;;0.22;;
13002;SDS011;66869;57.706;11.922;2023-03-20T13:03:57;0.75;;;0.30;;
13002;SDS011;66869;57.706;11.922;2023-03-20T13:11:38;0.55;;;0.30;;
13002;SDS011;66869;57.706;11.922;2023-03-20T13:14:17;0.43;;;0.35;;
13002;SDS011;66869;57.706;11.922;2023-03-20T13:17:08;1.58;;;0.40;;
13002;SDS011;66869;57.706;11.922;2023-03-20T13:22:07;0.30;;;0.30;;
13002;SDS011;66869;57.706;11.922;2023-03-20T13:24:40;1.73;;;0.40;;
13002;SDS011;66869;57.706;11.922;2023-03-20T13:35:09;1.10;;;0.43;;
13002;SDS011;66869;57.706;11.922;2023-03-20T13:37:42;0.63;;;0.32;;
13002;SDS011;66869;57.706;11.922;2023-03-20T13:40:19;0.90;;;0.47;;
13002;SDS011;66869;57.706;11.922;2023-03-20T13:45:18;0.88;;;0.40;;
13002;SDS011;66869;57.706;11.922;2023-03-20T13:47:45;0.60;;;0.40;;
13002;SDS011;66869;57.706;11.922;2023-03-20T13:50:58;1.05;;;0.47;;
13002;SDS011;66869;57.706;11.922;2023-03-20T13:53:09;1.13;;;0.35;;
13002;SDS011;66869;57.706;11.922;2023-03-20T14:03:59;0.50;;;0.32;;
13002;SDS011;66869;57.706;11.922;2023-03-20T14:08:54;1.00;;;0.32;;
13002;SDS011;66869;57.706;11.922;2023-03-20T14:13:46;1.48;;;0.40;;
13002;SDS011;66869;57.706;11.922;2023-03-20T14:16:13;0.40;;;0.32;;
13002;SDS011;66869;57.706;11.922;2023-03-20T14:18:39;1.27;;;0.40;;
13002;SDS011;66869;57.706;11.922;2023-03-20T14:21:12;1.98;;;0.70;;
13002;SDS011;66869;57.706;11.922;2023-03-20T14:23:47;1.05;;;0.47;;
13002;SDS011;66869;57.706;11.922;2023-03-20T14:26:21;0.93;;;0.50;;
13002;SDS011;66869;57.706;11.922;2023-03-20T14:31:32;0.52;;;0.40;;
13002;SDS011;66869;57.706;11.922;2023-03-20T14:37:23;0.65;;;0.50;;
13002;SDS011;66869;57.706;11.922;2023-03-20T14:49:21;1.02;;;0.40;;
13002;SDS011;66869;57.706;11.922;2023-03-20T14:51:47;1.15;;;0.50;;
13002;SDS011;66869;57.706;11.922;2023-03-20T14:54:21;1.23;;;0.50;;
13002;SDS011;66869;57.706;11.922;2023-03-20T14:56:47;0.55;;;0.38;;
13002;SDS011;66869;57.706;11.922;2023-03-20T14:59:13;0.68;;;0.38;;
13002;SDS011;66869;57.706;11.922;2023-03-20T15:01:42;1.42;;;0.45;;
13002;SDS011;66869;57.706;11.922;2023-03-20T15:04:29;1.35;;;0.50;;
13002;SDS011;66869;57.706;11.922;2023-03-20T15:06:58;0.68;;;0.43;;
13002;SDS011;66869;57.706;11.922;2023-03-20T15:09:24;0.77;;;0.40;;
13002;SDS011;66869;57.706;11.922;2023-03-20T15:11:51;0.98;;;0.30;;
13002;SDS011;66869;57.706;11.922;2023-03-20T15:14:24;1.08;;;0.40;;
13002;SDS011;66869;57.706;11.922;2023-03-20T15:16:55;0.80;;;0.50;;
13002;SDS011;66869;57.706;11.922;2023-03-20T15:19:21;1.42;;;0.30;;
13002;SDS011;66869;57.706;11.922;2023-03-20T15:21:46;0.57;;;0.45;;
13002;SDS011;66869;57.706;11.922;2023-03-20T15:24:17;1.40;;;0.50;;
13002;SDS011;66869;57.706;11.922;2023-03-20T15:26:43;0.82;;;0.40;;
13002;SDS011;66869;57.706;11.922;2023-03-20T15:29:12;0.85;;;0.43;;
13002;SDS011;66869;57.706;11.922;2023-03-20T15:31:39;0.77;;;0.38;;
13002;SDS011;66869;57.706;11.922;2023-03-20T15:34:08;0.40;;;0.30;;
13002;SDS011;66869;57.706;11.922;2023-03-20T15:36:37;0.80;;;0.30;;
13002;SDS011;66869;57.706;11.922;2023-03-20T15:39:05;0.47;;;0.32;;
13002;SDS011;66869;57.706;11.922;2023-03-20T15:41:32;1.15;;;0.50;;
13002;SDS011;66869;57.706;11.922;2023-03-20T15:46:49;0.95;;;0.30;;
13002;SDS011;66869;57.706;11.922;2023-03-20T15:49:18;0.77;;;0.43;;
13002;SDS011;66869;57.706;11.922;2023-03-20T15:51:43;0.85;;;0.50;;
13002;SDS011;66869;57.706;11.922;2023-03-20T15:54:09;1.83;;;0.30;;
13002;SDS011;66869;57.706;11.922;2023-03-20T15:56:36;0.45;;;0.30;;
13002;SDS011;66869;57.706;11.922;2023-03-20T15:59:08;0.20;;;0.20;;
13002;SDS011;66869;57.706;11.922;2023-03-20T16:01:34;0.35;;;0.30;;
13002;SDS011;66869;57.706;11.922;2023-03-20T16:04:00;0.57;;;0.30;;
13002;SDS011;66869;57.706;11.922;2023-03-20T16:06:25;0.25;;;0.20;;
13002;SDS011;66869;57.706;11.922;2023-03-20T16:09:01;1.10;;;0.40;;
13002;SDS011;66869;57.706;11.922;2023-03-20T16:11:34;0.55;;;0.30;;
13002;SDS011;66869;57.706;11.922;2023-03-20T16:13:59;0.65;;;0.25;;
13002;SDS011;66869;57.706;11.922;2023-03-20T16:16:25;0.93;;;0.40;;
13002;SDS011;66869;57.706;11.922;2023-03-20T16:18:50;0.38;;;0.30;;
13002;SDS011;66869;57.706;11.922;2023-03-20T16:21:28;1.85;;;0.30;;
13002;SDS011;66869;57.706;11.922;2023-03-20T16:23:55;0.20;;;0.20;;
13002;SDS011;66869;57.706;11.922;2023-03-20T16:26:22;0.43;;;0.25;;
13002;SDS011;66869;57.706;11.922;2023-03-20T16:28:48;0.28;;;0.20;;
13002;SDS011;66869;57.706;11.922;2023-03-20T16:31:27;1.08;;;0.30;;
13002;SDS011;66869;57.706;11.922;2023-03-20T16:33:57;0.65;;;0.30;;
13002;SDS011;66869;57.706;11.922;2023-03-20T16:36:30;0.85;;;0.35;;
13002;SDS011;66869;57.706;11.922;2023-03-20T16:38:57;0.57;;;0.15;;
13002;SDS011;66869;57.706;11.922;2023-03-20T16:41:29;0.25;;;0.20;;
13002;SDS011;66869;57.706;11.922;2023-03-20T16:43:56;0.73;;;0.30;;
13002;SDS011;66869;57.706;11.922;2023-03-20T16:46:22;0.50;;;0.20;;
13002;SDS011;66869;57.706;11.922;2023-03-20T16:48:49;0.45;;;0.30;;
13002;SDS011;66869;57.706;11.922;2023-03-20T16:51:16;0.73;;;0.32;;
13002;SDS011;66869;57.706;11.922;2023-03-20T16:53:45;0.20;;;0.20;;
13002;SDS011;66869;57.706;11.922;2023-03-20T16:56:15;0.10;;;0.10;;
13002;SDS011;66869;57.706;11.922;2023-03-20T16:58:43;0.40;;;0.20;;
13002;SDS011;66869;57.706;11.922;2023-03-20T17:01:13;1.25;;;0.40;;
13002;SDS011;66869;57.706;11.922;2023-03-20T17:06:11;0.52;;;0.20;;
13002;SDS011;66869;57.706;11.922;2023-03-20T17:08:51;0.90;;;0.40;;
13002;SDS011;66869;57.706;11.922;2023-03-20T17:13:57;0.57;;;0.25;;